createdAt,value
2023-04-13T00:00:47.063Z,98548.88
2023-04-13T00:03:17.057Z,98543.63
2023-04-13T00:05:46.283Z,98542.69
2023-04-13T00:08:14.314Z,98535.25
2023-04-13T00:10:42.071Z,98535.75
2023-04-13T00:13:10.828Z,98532.72
2023-04-13T00:15:41.909Z,98531.06
2023-04-13T00:18:10.800Z,98528.91
2023-04-13T00:20:39.220Z,98531.09
2023-04-13T00:23:06.723Z,98529.06
2023-04-13T00:25:34.453Z,98533.09
2023-04-13T00:28:03.730Z,98525.38
2023-04-13T00:30:31.510Z,98528.75
2023-04-13T00:32:59.248Z,98522.16
2023-04-13T00:35:28.528Z,98519.84
2023-04-13T00:37:55.911Z,98526.72
2023-04-13T00:40:24.651Z,98519.81
2023-04-13T00:42:53.983Z,98520.00
2023-04-13T00:45:21.641Z,98521.50
2023-04-13T00:47:50.851Z,98523.88
2023-04-13T00:50:20.947Z,98530.41
2023-04-13T00:52:49.834Z,98526.69
2023-04-13T00:55:21.371Z,98523.84
2023-04-13T00:57:53.383Z,98529.72
2023-04-13T01:00:22.032Z,98523.00
2023-04-13T01:02:52.587Z,98520.00
2023-04-13T01:05:21.510Z,98518.66
2023-04-13T01:08:19.116Z,98518.12
2023-04-13T01:11:11.742Z,98520.34
2023-04-13T01:14:01.754Z,98520.00
2023-04-13T01:16:37.905Z,98522.53
2023-04-13T01:19:06.522Z,98519.81
2023-04-13T01:21:35.686Z,98506.03
2023-04-13T01:24:21.742Z,98509.72
2023-04-13T01:26:49.577Z,98503.69
2023-04-13T01:29:17.245Z,98503.00
2023-04-13T01:31:46.292Z,98511.25
2023-04-13T01:34:14.047Z,98504.69
2023-04-13T01:36:41.663Z,98504.03
2023-04-13T01:39:10.552Z,98505.00
2023-04-13T01:41:38.697Z,98510.78
2023-04-13T01:44:07.160Z,98508.25
2023-04-13T01:46:35.723Z,98514.63
2023-04-13T01:49:04.371Z,98515.97
2023-04-13T01:51:34.678Z,98516.81
2023-04-13T01:54:13.638Z,98514.59
2023-04-13T01:56:43.937Z,98512.94
2023-04-13T01:59:11.368Z,98509.91
2023-04-13T02:01:41.529Z,98520.47
2023-04-13T02:04:10.034Z,98508.53
2023-04-13T02:06:37.829Z,98516.16
2023-04-13T02:09:08.369Z,98513.28
2023-04-13T02:11:36.706Z,98510.44
2023-04-13T02:14:04.919Z,98511.59
2023-04-13T02:16:33.131Z,98509.94
2023-04-13T02:19:01.700Z,98510.94
2023-04-13T02:21:29.156Z,98520.53
2023-04-13T02:23:57.427Z,98520.31
2023-04-13T02:26:26.318Z,98510.75
2023-04-13T02:28:53.925Z,98514.97
2023-04-13T02:31:23.486Z,98511.41
2023-04-13T02:33:51.780Z,98508.06
2023-04-13T02:36:20.255Z,98510.09
2023-04-13T02:38:48.450Z,98503.69
2023-04-13T02:41:22.765Z,98503.53
2023-04-13T02:43:51.008Z,98510.75
2023-04-13T02:46:19.103Z,98506.03
2023-04-13T02:48:47.627Z,98499.31
2023-04-13T02:51:15.368Z,98498.09
2023-04-13T02:53:43.109Z,98501.47
2023-04-13T02:56:10.511Z,98501.16
2023-04-13T02:58:38.436Z,98496.97
2023-04-13T03:01:06.722Z,98501.00
2023-04-13T03:03:34.450Z,98504.38
2023-04-13T03:06:02.307Z,98513.28
2023-04-13T03:08:30.794Z,98505.00
2023-04-13T03:10:59.565Z,98503.19
2023-04-13T03:13:27.912Z,98501.34
2023-04-13T03:15:56.159Z,98505.19
2023-04-13T03:18:25.296Z,98502.19
2023-04-13T03:20:53.356Z,98508.22
2023-04-13T03:23:21.366Z,98505.78
2023-04-13T03:25:49.055Z,98509.63
2023-04-13T03:28:19.525Z,98505.06
2023-04-13T03:30:47.259Z,98506.66
2023-04-13T03:33:14.791Z,98499.81
2023-04-13T03:35:42.727Z,98509.50
2023-04-13T03:38:10.919Z,98506.69
2023-04-13T03:40:38.562Z,98502.84
2023-04-13T03:43:06.785Z,98498.81
2023-04-13T03:45:34.488Z,98496.28
2023-04-13T03:48:02.818Z,98492.56
2023-04-13T03:50:31.461Z,98493.16
2023-04-13T03:52:59.118Z,98490.22
2023-04-13T03:55:27.300Z,98483.78
2023-04-13T03:57:55.656Z,98486.31
2023-04-13T04:00:24.283Z,98479.13
2023-04-13T04:02:53.222Z,98488.41
2023-04-13T04:05:21.702Z,98488.22
2023-04-13T04:07:49.942Z,98497.25
2023-04-13T04:10:17.882Z,98496.00
2023-04-13T04:12:45.910Z,98499.09
2023-04-13T04:15:13.372Z,98502.34
2023-04-13T04:17:41.435Z,98498.81
2023-04-13T04:20:10.166Z,98504.25
2023-04-13T04:22:37.646Z,98497.97
2023-04-13T04:25:06.481Z,98493.09
2023-04-13T04:27:38.515Z,98492.78
2023-04-13T04:30:10.744Z,98501.78
2023-04-13T04:32:38.421Z,98502.38
2023-04-13T04:35:07.688Z,98498.63
2023-04-13T04:37:37.691Z,98507.69
2023-04-13T04:40:10.219Z,98510.28
2023-04-13T04:42:38.516Z,98503.03
2023-04-13T04:45:07.222Z,98502.09
2023-04-13T04:47:43.724Z,98503.44
2023-04-13T04:50:14.488Z,98514.87
2023-04-13T04:52:43.199Z,98512.47
2023-04-13T04:55:11.206Z,98514.16
2023-04-13T04:57:39.571Z,98508.91
2023-04-13T05:00:15.038Z,98513.75
2023-04-13T05:02:43.359Z,98509.28
2023-04-13T05:05:11.957Z,98507.59
2023-04-13T05:07:39.853Z,98500.69
2023-04-13T05:10:09.539Z,98508.41
2023-04-13T05:12:37.921Z,98509.06
2023-04-13T05:15:06.542Z,98503.56
2023-04-13T05:17:36.408Z,98504.41
2023-04-13T05:20:06.981Z,98507.25
2023-04-13T05:22:35.867Z,98517.63
2023-04-13T05:25:04.156Z,98521.94
2023-04-13T05:27:31.612Z,98515.34
2023-04-13T05:29:59.686Z,98519.56
2023-04-13T05:32:27.237Z,98528.22
2023-04-13T05:34:54.911Z,98530.09
2023-04-13T05:37:23.158Z,98520.16
2023-04-13T05:39:51.995Z,98513.59
2023-04-13T05:42:20.091Z,98517.31
2023-04-13T05:44:48.468Z,98531.59
2023-04-13T05:47:21.270Z,98517.34
2023-04-13T05:49:49.242Z,98518.47
2023-04-13T05:52:19.076Z,98517.91
2023-04-13T05:54:46.693Z,98518.47
2023-04-13T05:57:14.439Z,98519.16
2023-04-13T05:59:42.028Z,98517.63
2023-04-13T06:02:09.592Z,98512.25
2023-04-13T06:04:38.027Z,98517.81
2023-04-13T06:07:05.845Z,98508.22
2023-04-13T06:09:34.115Z,98514.53
2023-04-13T06:12:02.642Z,98516.25
2023-04-13T06:14:30.007Z,98519.28
2023-04-13T06:16:57.449Z,98517.19
2023-04-13T06:19:28.277Z,98512.41
2023-04-13T06:21:57.096Z,98505.53
2023-04-13T06:24:24.868Z,98511.88
2023-04-13T06:26:53.050Z,98514.81
2023-04-13T06:29:20.831Z,98522.34
2023-04-13T06:31:49.341Z,98517.66
2023-04-13T06:34:17.473Z,98521.50
2023-04-13T06:36:45.015Z,98523.88
2023-04-13T06:39:13.778Z,98526.38
2023-04-13T06:41:41.623Z,98521.78
2023-04-13T06:44:10.530Z,98540.16
2023-04-13T06:46:39.158Z,98534.31
2023-04-13T06:49:07.496Z,98533.09
2023-04-13T06:51:35.098Z,98531.75
2023-04-13T06:54:02.830Z,98524.13
2023-04-13T06:56:30.462Z,98532.06
2023-04-13T06:59:02.536Z,98531.44
2023-04-13T07:01:31.924Z,98532.91
2023-04-13T07:03:59.830Z,98533.09
2023-04-13T07:06:27.682Z,98538.09
2023-04-13T07:08:55.472Z,98543.00
2023-04-13T07:11:26.015Z,98545.31
2023-04-13T07:13:53.546Z,98543.16
2023-04-13T07:16:21.405Z,98545.50
2023-04-13T07:18:48.847Z,98545.84
2023-04-13T07:21:16.394Z,98552.94
2023-04-13T07:23:45.515Z,98547.09
2023-04-13T07:26:15.076Z,98548.53
2023-04-13T07:28:42.477Z,98546.31
2023-04-13T07:31:11.883Z,98559.25
2023-04-13T07:33:39.891Z,98555.88
2023-04-13T07:36:09.047Z,98550.88
2023-04-13T07:38:38.318Z,98551.66
2023-04-13T07:41:07.405Z,98554.59
2023-04-13T07:43:35.448Z,98559.31
2023-04-13T07:46:11.871Z,98553.44
2023-04-13T07:48:39.873Z,98552.13
2023-04-13T07:51:17.418Z,98559.84
2023-04-13T07:53:45.543Z,98560.22
2023-04-13T07:56:14.238Z,98559.87
2023-04-13T07:58:41.928Z,98558.72
2023-04-13T08:01:09.503Z,98553.37
2023-04-13T08:03:37.973Z,98549.00
2023-04-13T08:06:07.826Z,98564.03
2023-04-13T08:08:35.301Z,98556.03
2023-04-13T08:11:03.238Z,98553.19
2023-04-13T08:13:33.098Z,98552.56
2023-04-13T08:16:00.685Z,98547.25
2023-04-13T08:18:28.778Z,98549.41
2023-04-13T08:20:56.268Z,98555.25
2023-04-13T08:23:24.340Z,98551.09
2023-04-13T08:25:52.009Z,98548.34
2023-04-13T08:28:19.513Z,98556.56
2023-04-13T08:30:47.054Z,98555.63
2023-04-13T08:33:15.024Z,98556.25
2023-04-13T08:35:42.673Z,98546.53
2023-04-13T08:38:10.783Z,98540.81
2023-04-13T08:40:40.795Z,98546.63
2023-04-13T08:43:09.677Z,98548.69
2023-04-13T08:45:41.589Z,98548.94
2023-04-13T08:48:11.806Z,98536.84
2023-04-13T08:50:39.770Z,98546.41
2023-04-13T08:53:08.294Z,98542.63
2023-04-13T08:55:43.503Z,98532.53
2023-04-13T08:58:12.962Z,98533.47
2023-04-13T09:00:42.004Z,98537.69
2023-04-13T09:03:14.123Z,98531.38
2023-04-13T09:05:43.093Z,98530.72
2023-04-13T09:08:13.493Z,98541.97
2023-04-13T09:10:42.329Z,98534.62
2023-04-13T09:13:10.069Z,98534.75
2023-04-13T09:15:37.814Z,98528.00
2023-04-13T09:18:07.881Z,98528.53
2023-04-13T09:20:37.006Z,98532.56
2023-04-13T09:23:17.167Z,98541.56
2023-04-13T09:25:45.441Z,98540.97
2023-04-13T09:28:19.776Z,98537.41
2023-04-13T09:30:47.637Z,98533.31
2023-04-13T09:33:15.926Z,98534.06
2023-04-13T09:35:43.290Z,98533.66
2023-04-13T09:38:15.350Z,98529.84
2023-04-13T09:40:49.975Z,98526.69
2023-04-13T09:43:17.793Z,98529.63
2023-04-13T09:45:45.159Z,98528.56
2023-04-13T09:48:21.823Z,98532.53
2023-04-13T09:51:05.585Z,98538.59
2023-04-13T09:53:43.978Z,98530.69
2023-04-13T09:56:11.754Z,98532.03
2023-04-13T09:58:44.257Z,98529.03
2023-04-13T10:01:15.443Z,98517.41
2023-04-13T10:03:43.992Z,98519.84
2023-04-13T10:06:11.501Z,98529.72
2023-04-13T10:08:39.879Z,98528.38
2023-04-13T10:11:14.653Z,98534.97
2023-04-13T10:13:51.100Z,98528.53
2023-04-13T10:16:28.179Z,98534.16
2023-04-13T10:19:05.157Z,98530.25
2023-04-13T10:21:35.725Z,98522.56
2023-04-13T10:24:11.574Z,98534.00
2023-04-13T10:26:41.262Z,98529.56
2023-04-13T10:29:10.147Z,98536.38
2023-04-13T10:31:39.645Z,98529.50
2023-04-13T10:34:08.131Z,98522.56
2023-04-13T10:36:43.179Z,98533.91
2023-04-13T10:39:11.404Z,98535.56
2023-04-13T10:41:38.812Z,98525.56
2023-04-13T10:44:07.774Z,98526.12
2023-04-13T10:46:36.195Z,98526.38
2023-04-13T10:49:04.656Z,98523.34
2023-04-13T10:51:39.564Z,98515.50
2023-04-13T10:54:09.774Z,98512.53
2023-04-13T10:56:37.292Z,98515.31
2023-04-13T10:59:04.829Z,98513.09
2023-04-13T11:01:33.845Z,98517.06
2023-04-13T11:04:08.180Z,98511.91
2023-04-13T11:06:39.212Z,98495.38
2023-04-13T11:09:07.138Z,98506.72
2023-04-13T11:11:36.468Z,98506.38
2023-04-13T11:14:04.598Z,98504.72
2023-04-13T11:16:32.631Z,98510.22
2023-04-13T11:19:04.157Z,98504.41
2023-04-13T11:21:31.909Z,98493.16
2023-04-13T11:24:02.115Z,98493.00
2023-04-13T11:26:34.344Z,98483.75
2023-04-13T11:29:03.696Z,98486.16
2023-04-13T11:31:42.039Z,98479.19
2023-04-13T11:34:11.420Z,98480.03
2023-04-13T11:36:39.796Z,98478.06
2023-04-13T11:39:10.861Z,98479.31
2023-04-13T11:41:43.048Z,98477.50
2023-04-13T11:44:13.840Z,98485.25
2023-04-13T11:46:41.951Z,98474.38
2023-04-13T11:49:09.552Z,98486.09
2023-04-13T11:51:37.650Z,98484.00
2023-04-13T11:54:06.650Z,98476.78
2023-04-13T11:56:34.194Z,98481.63
2023-04-13T11:59:02.051Z,98478.84
2023-04-13T12:01:34.211Z,98475.13
2023-04-13T12:04:16.027Z,98476.16
2023-04-13T12:06:46.544Z,98478.47
2023-04-13T12:09:17.658Z,98469.13
2023-04-13T12:11:54.308Z,98471.91
2023-04-13T12:14:52.147Z,98466.66
2023-04-13T12:17:38.437Z,98464.59
2023-04-13T12:20:15.616Z,98454.31
2023-04-13T12:25:21.277Z,98457.81
2023-04-13T12:27:53.076Z,98455.88
2023-04-13T12:30:22.314Z,98453.63
2023-04-13T12:32:54.903Z,98444.81
2023-04-13T12:35:22.856Z,98432.78
2023-04-13T12:37:50.550Z,98430.91
2023-04-13T12:40:18.625Z,98435.00
2023-04-13T12:42:47.305Z,98430.72
2023-04-13T12:45:16.736Z,98434.50
2023-04-13T12:47:44.385Z,98428.56
2023-04-13T12:50:12.946Z,98426.75
2023-04-13T12:52:42.421Z,98417.56
2023-04-13T12:55:10.296Z,98421.97
2023-04-13T12:57:39.590Z,98414.84
2023-04-13T13:00:10.442Z,98415.84
2023-04-13T13:02:38.482Z,98414.59
2023-04-13T13:05:09.301Z,98410.47
2023-04-13T13:07:36.845Z,98407.94
2023-04-13T13:10:14.867Z,98414.44
2023-04-13T13:12:49.530Z,98406.94
2023-04-13T13:15:17.245Z,98416.31
2023-04-13T13:17:44.896Z,98404.62
2023-04-13T13:20:13.381Z,98420.66
2023-04-13T13:22:42.077Z,98414.03
2023-04-13T13:25:09.973Z,98418.38
2023-04-13T13:28:05.246Z,98408.78
2023-04-13T13:30:26.611Z,98409.41
2023-04-13T13:32:54.099Z,98403.97
2023-04-13T13:35:21.930Z,98395.81
2023-04-13T13:37:49.578Z,98389.56
2023-04-13T13:40:17.652Z,98386.19
2023-04-13T13:42:51.936Z,98385.34
2023-04-13T13:45:21.400Z,98383.91
2023-04-13T13:47:54.603Z,98393.97
2023-04-13T13:50:22.962Z,98387.06
2023-04-13T13:53:03.014Z,98382.03
2023-04-13T13:55:32.232Z,98388.72
2023-04-13T13:57:59.625Z,98390.78
2023-04-13T14:00:27.296Z,98385.78
2023-04-13T14:02:55.202Z,98381.38
2023-04-13T14:05:22.767Z,98379.09
2023-04-13T14:07:50.973Z,98382.47
2023-04-13T14:10:18.821Z,98375.78
2023-04-13T14:12:49.584Z,98378.06
2023-04-13T14:15:18.158Z,98371.63
2023-04-13T14:17:55.437Z,98373.69
2023-04-13T14:20:29.867Z,98378.91
2023-04-13T14:22:57.618Z,98383.63
2023-04-13T14:25:25.025Z,98391.50
2023-04-13T14:27:52.410Z,98385.72
2023-04-13T14:30:22.323Z,98384.31
2023-04-13T14:32:51.077Z,98375.13
2023-04-13T14:35:18.924Z,98375.94
2023-04-13T14:37:47.643Z,98370.50
2023-04-13T14:40:17.249Z,98377.09
2023-04-13T14:42:45.656Z,98373.97
2023-04-13T14:45:13.506Z,98382.59
2023-04-13T14:47:41.149Z,98388.88
2023-04-13T14:50:09.956Z,98385.06
2023-04-13T14:52:37.916Z,98379.34
2023-04-13T14:55:05.650Z,98385.31
2023-04-13T14:57:33.223Z,98385.19
2023-04-13T15:00:01.994Z,98385.31
2023-04-13T15:02:29.763Z,98385.31
2023-04-13T15:04:58.387Z,98387.50
2023-04-13T15:07:29.229Z,98376.50
2023-04-13T15:09:58.085Z,98387.81
2023-04-13T15:12:25.838Z,98387.34
2023-04-13T15:14:53.307Z,98393.13
2023-04-13T15:17:21.160Z,98391.84
2023-04-13T15:19:48.851Z,98389.25
2023-04-13T15:22:16.390Z,98399.84
2023-04-13T15:24:43.895Z,98398.47
2023-04-13T15:27:11.646Z,98394.53
2023-04-13T15:29:39.062Z,98399.16
2023-04-13T15:32:06.701Z,98407.25
2023-04-13T15:34:34.461Z,98397.75
2023-04-13T15:37:01.866Z,98394.88
2023-04-13T15:39:29.292Z,98398.63
2023-04-13T15:41:57.879Z,98398.84
2023-04-13T15:44:25.235Z,98405.53
2023-04-13T15:46:52.649Z,98390.81
2023-04-13T15:49:20.564Z,98391.75
2023-04-13T15:51:48.027Z,98401.41
2023-04-13T15:54:15.506Z,98396.28
2023-04-13T15:56:44.209Z,98393.78
2023-04-13T15:59:11.714Z,98391.09
2023-04-13T16:01:49.581Z,98396.91
2023-04-13T16:04:17.589Z,98397.22
2023-04-13T16:06:45.060Z,98391.56
2023-04-13T16:09:12.493Z,98387.22
2023-04-13T16:11:40.288Z,98390.59
2023-04-13T16:14:08.892Z,98395.59
2023-04-13T16:16:46.874Z,98398.19
2023-04-13T16:19:18.117Z,98388.28
2023-04-13T16:21:47.096Z,98387.47
2023-04-13T16:24:14.972Z,98373.75
2023-04-13T16:26:42.833Z,98386.44
2023-04-13T16:29:10.284Z,98393.03
2023-04-13T16:31:38.009Z,98392.19
2023-04-13T16:34:22.137Z,98386.31
2023-04-13T16:36:53.151Z,98384.56
2023-04-13T16:39:21.933Z,98382.81
2023-04-13T16:41:49.419Z,98378.09
2023-04-13T16:44:17.205Z,98374.31
2023-04-13T16:46:44.637Z,98375.44
2023-04-13T16:49:12.546Z,98376.28
2023-04-13T16:51:40.255Z,98383.81
2023-04-13T16:54:07.698Z,98386.72
2023-04-13T16:56:35.067Z,98378.41
2023-04-13T16:59:03.681Z,98378.22
2023-04-13T17:01:31.337Z,98384.38
2023-04-13T17:03:58.897Z,98371.69
2023-04-13T17:06:27.326Z,98384.69
2023-04-13T17:08:54.823Z,98388.16
2023-04-13T17:11:23.085Z,98401.25
2023-04-13T17:13:51.475Z,98397.12
2023-04-13T17:16:19.070Z,98393.31
2023-04-13T17:18:46.509Z,98400.03
2023-04-13T17:21:14.502Z,98405.34
2023-04-13T17:23:43.056Z,98402.88
2023-04-13T17:26:10.477Z,98397.28
2023-04-13T17:28:38.429Z,98391.94
2023-04-13T17:31:07.673Z,98387.59
2023-04-13T17:33:35.225Z,98388.78
2023-04-13T17:36:02.929Z,98390.03
2023-04-13T17:38:30.295Z,98394.47
2023-04-13T17:40:57.831Z,98394.75
2023-04-13T17:43:25.520Z,98403.00
2023-04-13T17:45:53.112Z,98399.94
2023-04-13T17:48:20.719Z,98401.03
2023-04-13T17:50:49.580Z,98400.03
2023-04-13T17:53:17.364Z,98406.94
2023-04-13T17:55:44.817Z,98413.31
2023-04-13T17:58:12.766Z,98420.06
2023-04-13T18:00:40.264Z,98418.19
2023-04-13T18:03:09.271Z,98418.41
2023-04-13T18:05:41.967Z,98425.94
2023-04-13T18:08:09.904Z,98423.47
2023-04-13T18:10:37.678Z,98424.66
2023-04-13T18:13:05.176Z,98427.75
2023-04-13T18:15:32.883Z,98436.31
2023-04-13T18:18:00.544Z,98431.19
2023-04-13T18:20:28.236Z,98432.13
2023-04-13T18:22:56.365Z,98429.94
2023-04-13T18:25:24.014Z,98426.50
2023-04-13T18:27:51.583Z,98420.66
2023-04-13T18:30:19.954Z,98420.28
2023-04-13T18:32:51.424Z,98424.50
2023-04-13T18:35:19.390Z,98421.19
2023-04-13T18:37:46.918Z,98420.19
2023-04-13T18:40:14.406Z,98413.84
2023-04-13T18:42:42.759Z,98416.66
2023-04-13T18:45:10.907Z,98414.00
2023-04-13T18:47:39.018Z,98417.91
2023-04-13T18:50:07.658Z,98414.31
2023-04-13T18:52:35.322Z,98417.47
2023-04-13T18:55:03.475Z,98424.50
2023-04-13T18:57:31.207Z,98424.97
2023-04-13T18:59:58.647Z,98418.84
2023-04-13T19:02:26.545Z,98420.84
2023-04-13T19:04:54.448Z,98414.31
2023-04-13T19:07:22.139Z,98421.47
2023-04-13T19:09:52.023Z,98414.09
2023-04-13T19:12:19.835Z,98417.63
2023-04-13T19:14:47.440Z,98423.25
2023-04-13T19:17:16.482Z,98416.88
2023-04-13T19:19:44.306Z,98410.28
2023-04-13T19:22:12.347Z,98415.50
2023-04-13T19:24:40.426Z,98414.78
2023-04-13T19:27:08.321Z,98409.25
2023-04-13T19:29:36.852Z,98405.72
2023-04-13T19:32:04.279Z,98400.41
2023-04-13T19:34:32.826Z,98402.44
2023-04-13T19:37:00.249Z,98397.94
2023-04-13T19:39:27.912Z,98392.66
2023-04-13T19:41:55.783Z,98393.37
2023-04-13T19:44:23.408Z,98383.66
2023-04-13T19:46:50.835Z,98377.63
2023-04-13T19:49:18.630Z,98363.47
2023-04-13T19:51:46.122Z,98370.00
2023-04-13T19:54:13.915Z,98374.56
2023-04-13T19:56:42.314Z,98370.19
2023-04-13T19:59:09.996Z,98367.50
2023-04-13T20:01:37.827Z,98363.09
2023-04-13T20:04:06.314Z,98355.50
2023-04-13T20:06:34.356Z,98360.75
2023-04-13T20:09:08.814Z,98360.03
2023-04-13T20:11:36.530Z,98361.25
2023-04-13T20:14:04.966Z,98367.47
2023-04-13T20:16:32.449Z,98355.59
2023-04-13T20:19:00.265Z,98342.91
2023-04-13T20:21:31.032Z,98354.66
2023-04-13T20:23:59.518Z,98355.31
2023-04-13T20:26:29.967Z,98347.78
2023-04-13T20:29:01.271Z,98343.56
2023-04-13T20:31:32.840Z,98333.56
2023-04-13T20:34:03.038Z,98331.53
2023-04-13T20:36:31.346Z,98327.88
2023-04-13T20:39:01.543Z,98329.31
2023-04-13T20:41:34.859Z,98324.81
2023-04-13T20:44:03.091Z,98324.16
2023-04-13T20:46:37.747Z,98319.72
2023-04-13T20:49:05.717Z,98321.19
2023-04-13T20:51:33.795Z,98308.16
2023-04-13T20:54:02.710Z,98312.22
2023-04-13T20:56:30.923Z,98308.34
2023-04-13T20:58:58.394Z,98315.50
2023-04-13T21:01:25.975Z,98305.19
2023-04-13T21:03:53.769Z,98306.12
2023-04-13T21:06:22.937Z,98306.19
2023-04-13T21:08:52.755Z,98310.06
2023-04-13T21:11:21.445Z,98310.75
2023-04-13T21:13:48.845Z,98309.44
2023-04-13T21:16:16.445Z,98315.09
2023-04-13T21:18:44.288Z,98300.28
2023-04-13T21:21:11.793Z,98300.53
2023-04-13T21:23:54.788Z,98302.09
2023-04-13T21:26:22.710Z,98302.25
2023-04-13T21:28:50.130Z,98301.59
2023-04-13T21:31:17.576Z,98316.91
2023-04-13T21:33:45.766Z,98322.88
2023-04-13T21:38:44.235Z,98340.44
2023-04-13T21:41:19.888Z,98338.06
2023-04-13T21:43:47.472Z,98317.16
2023-04-13T21:46:15.817Z,98294.88
2023-04-13T21:48:43.504Z,98283.34
2023-04-13T21:51:11.558Z,98267.69
2023-04-13T21:53:39.245Z,98273.44
2023-04-13T21:56:06.915Z,98263.63
2023-04-13T21:58:42.477Z,98255.91
2023-04-13T22:01:11.668Z,98255.50
2023-04-13T22:03:41.299Z,98263.63
2023-04-13T22:06:10.176Z,98258.94
2023-04-13T22:08:38.217Z,98259.75
2023-04-13T22:11:06.582Z,98262.78
2023-04-13T22:13:34.106Z,98254.91
2023-04-13T22:16:01.626Z,98256.41
2023-04-13T22:18:29.309Z,98259.66
2023-04-13T22:20:58.806Z,98256.59
2023-04-13T22:23:26.793Z,98252.75
2023-04-13T22:26:01.655Z,98255.09
2023-04-13T22:28:30.984Z,98251.06
2023-04-13T22:31:06.452Z,98244.53
2023-04-13T22:33:36.151Z,98243.34
2023-04-13T22:36:04.607Z,98245.38
2023-04-13T22:38:32.082Z,98242.50
2023-04-13T22:40:59.504Z,98250.72
2023-04-13T22:43:27.325Z,98242.00
2023-04-13T22:45:58.416Z,98237.81
2023-04-13T22:48:27.740Z,98228.91
2023-04-13T22:50:55.766Z,98225.87
2023-04-13T22:53:23.154Z,98217.13
2023-04-13T22:55:50.982Z,98207.22
2023-04-13T22:58:18.630Z,98200.75
2023-04-13T23:00:46.007Z,98203.84
2023-04-13T23:03:13.720Z,98190.28
2023-04-13T23:05:41.554Z,98191.56
2023-04-13T23:08:08.945Z,98200.09
2023-04-13T23:10:36.664Z,98193.19
2023-04-13T23:13:04.779Z,98185.16
2023-04-13T23:15:32.314Z,98185.06
2023-04-13T23:18:02.508Z,98179.31
2023-04-13T23:20:30.594Z,98166.31
2023-04-13T23:22:58.078Z,98163.66
2023-04-13T23:25:25.589Z,98160.91
2023-04-13T23:27:53.243Z,98149.31
2023-04-13T23:30:20.961Z,98141.41
2023-04-13T23:32:48.409Z,98134.88
2023-04-13T23:35:16.295Z,98129.38
2023-04-13T23:37:45.345Z,98135.53
2023-04-13T23:40:12.915Z,98136.59
2023-04-13T23:42:40.853Z,98134.22
2023-04-13T23:45:08.898Z,98133.56
2023-04-13T23:47:36.354Z,98132.06
2023-04-13T23:50:04.255Z,98138.06
2023-04-13T23:52:31.714Z,98138.06
2023-04-13T23:54:59.165Z,98125.66
2023-04-13T23:57:26.869Z,98111.06
2023-04-13T23:59:57.491Z,98104.69
